N707VM KSEA-CYEG
Flight info
| Callsign | N707VM |
|---|---|
| Flight time | 1h 25m |
| Altitude | 45000 |
| Route | MONTN2 SEA DCT ALPSE DCT YDC DCT ROMRA DCT ELLKS ELLKS3 |
| Aircraft | C700/M-SBDGHM1RWXY/LB2 |
Departure
| Time | 2026-05-05 23:54 |
|---|---|
| Airport | Seattle–Tacoma International Airport (KSEA) |
Arrival
| Time | 2026-05-06 01:19 |
|---|---|
| Airport | Edmonton International Airport (CYEG) |
| Time | Latitude | Longitude | Altitude | Speed | Heading |
|---|---|---|---|---|---|
| 2026-05-05 23:28 | 47.43614 | -122.30471 | 388 ft | 0 kts | 92° |
| 2026-05-05 23:45 | 47.43614 | -122.30474 | 397 ft | 2 kts | 91° |
| 2026-05-05 23:45 | 47.43612 | -122.30510 | 388 ft | 4 kts | 66° |
| 2026-05-05 23:45 | 47.43596 | -122.30541 | 388 ft | 4 kts | 32° |
| 2026-05-05 23:45 | 47.43572 | -122.30556 | 388 ft | 4 kts | 10° |
| 2026-05-05 23:46 | 47.43546 | -122.30560 | 388 ft | 3 kts | 1° |
| 2026-05-05 23:46 | 47.43543 | -122.30560 | 388 ft | 0 kts | 1° |
| 2026-05-05 23:49 | 47.43574 | -122.30575 | 388 ft | 11 kts | 333° |
| 2026-05-05 23:49 | 47.43657 | -122.30634 | 388 ft | 17 kts | 348° |
| 2026-05-05 23:49 | 47.43811 | -122.30638 | 388 ft | 26 kts | 0° |
| 2026-05-05 23:50 | 47.44005 | -122.30636 | 388 ft | 30 kts | 0° |
| 2026-05-05 23:50 | 47.44205 | -122.30634 | 388 ft | 27 kts | 0° |
| 2026-05-05 23:50 | 47.44404 | -122.30632 | 388 ft | 30 kts | 0° |
| 2026-05-05 23:50 | 47.44617 | -122.30631 | 388 ft | 27 kts | 360° |
| 2026-05-05 23:51 | 47.44813 | -122.30629 | 388 ft | 29 kts | 0° |
| 2026-05-05 23:51 | 47.45010 | -122.30628 | 388 ft | 28 kts | 0° |
| 2026-05-05 23:51 | 47.45212 | -122.30625 | 388 ft | 30 kts | 0° |
| 2026-05-05 23:51 | 47.45431 | -122.30623 | 388 ft | 32 kts | 0° |
| 2026-05-05 23:52 | 47.45664 | -122.30620 | 388 ft | 34 kts | 0° |
| 2026-05-05 23:52 | 47.45898 | -122.30618 | 388 ft | 27 kts | 0° |
| 2026-05-05 23:52 | 47.46098 | -122.30618 | 388 ft | 30 kts | 1° |
| 2026-05-05 23:52 | 47.46230 | -122.30616 | 388 ft | 15 kts | 360° |
| 2026-05-05 23:53 | 47.46277 | -122.30725 | 388 ft | 17 kts | 240° |
| 2026-05-05 23:53 | 47.46134 | -122.30778 | 388 ft | 42 kts | 181° |
| 2026-05-05 23:53 | 47.45498 | -122.30794 | 407 ft | 137 kts | 181° |
| 2026-05-05 23:53 | 47.44336 | -122.30784 | 1015 ft | 192 kts | 182° |
| 2026-05-05 23:54 | 47.42970 | -122.30757 | 1992 ft | 201 kts | 181° |
| 2026-05-05 23:54 | 47.41559 | -122.30789 | 2942 ft | 205 kts | 183° |
| 2026-05-05 23:54 | 47.40070 | -122.30847 | 3846 ft | 228 kts | 182° |
| 2026-05-05 23:54 | 47.38381 | -122.30891 | 4951 ft | 255 kts | 181° |
| 2026-05-05 23:55 | 47.36515 | -122.30935 | 6087 ft | 278 kts | 181° |
| 2026-05-05 23:55 | 47.34564 | -122.30878 | 7647 ft | 282 kts | 172° |
| 2026-05-05 23:55 | 47.32799 | -122.29725 | 9323 ft | 287 kts | 140° |
| 2026-05-05 23:55 | 47.31641 | -122.27310 | 10756 ft | 300 kts | 109° |
| 2026-05-05 23:56 | 47.31437 | -122.24163 | 11913 ft | 316 kts | 77° |
| 2026-05-05 23:56 | 47.32399 | -122.21301 | 13612 ft | 314 kts | 47° |
| 2026-05-05 23:56 | 47.34162 | -122.19434 | 14818 ft | 329 kts | 23° |
| 2026-05-05 23:56 | 47.36478 | -122.18664 | 14987 ft | 348 kts | 2° |
| 2026-05-05 23:57 | 47.38855 | -122.18819 | 15359 ft | 335 kts | 354° |
| 2026-05-05 23:57 | 47.41098 | -122.19151 | 17333 ft | 318 kts | 355° |
| 2026-05-05 23:57 | 47.43339 | -122.19288 | 18692 ft | 327 kts | 1° |
| 2026-05-05 23:57 | 47.45603 | -122.18974 | 19940 ft | 331 kts | 7° |
| 2026-05-05 23:58 | 47.47902 | -122.18462 | 21114 ft | 337 kts | 7° |
| 2026-05-05 23:58 | 47.50257 | -122.18070 | 22224 ft | 342 kts | 4° |
| 2026-05-05 23:58 | 47.52649 | -122.17790 | 23351 ft | 348 kts | 4° |
| 2026-05-05 23:58 | 47.55082 | -122.17465 | 24347 ft | 353 kts | 5° |
| 2026-05-05 23:59 | 47.57545 | -122.17081 | 25280 ft | 359 kts | 5° |
| 2026-05-05 23:59 | 47.60052 | -122.16698 | 26229 ft | 363 kts | 4° |
| 2026-05-05 23:59 | 47.62560 | -122.16338 | 27051 ft | 369 kts | 4° |
| 2026-05-05 23:59 | 47.65148 | -122.15967 | 27922 ft | 375 kts | 4° |
| 2026-05-06 00:00 | 47.67778 | -122.15580 | 28762 ft | 381 kts | 4° |
| 2026-05-06 00:00 | 47.70406 | -122.15191 | 29609 ft | 386 kts | 4° |
| 2026-05-06 00:00 | 47.73104 | -122.14794 | 30398 ft | 392 kts | 4° |
| 2026-05-06 00:00 | 47.75837 | -122.14393 | 31129 ft | 396 kts | 4° |
| 2026-05-06 00:01 | 47.78596 | -122.13987 | 31863 ft | 400 kts | 4° |
| 2026-05-06 00:01 | 47.81376 | -122.13576 | 32566 ft | 403 kts | 4° |
| 2026-05-06 00:01 | 47.84181 | -122.13162 | 33245 ft | 407 kts | 4° |
| 2026-05-06 00:01 | 47.86989 | -122.12747 | 34130 ft | 404 kts | 4° |
| 2026-05-06 00:02 | 47.89774 | -122.12334 | 34912 ft | 401 kts | 4° |
| 2026-05-06 00:02 | 47.92551 | -122.11923 | 35634 ft | 399 kts | 4° |
| 2026-05-06 00:02 | 47.95302 | -122.11516 | 36345 ft | 396 kts | 4° |
| 2026-05-06 00:02 | 47.98040 | -122.11109 | 36993 ft | 394 kts | 4° |
| 2026-05-06 00:03 | 48.00773 | -122.10703 | 37571 ft | 393 kts | 4° |
| 2026-05-06 00:03 | 48.03480 | -122.10301 | 38104 ft | 392 kts | 4° |
| 2026-05-06 00:03 | 48.06202 | -122.09896 | 38617 ft | 391 kts | 4° |
| 2026-05-06 00:03 | 48.08870 | -122.09498 | 39016 ft | 390 kts | 4° |
| 2026-05-06 00:04 | 48.11562 | -122.09013 | 39326 ft | 392 kts | 7° |
| 2026-05-06 00:04 | 48.14216 | -122.08011 | 39574 ft | 396 kts | 15° |
| 2026-05-06 00:04 | 48.16789 | -122.06467 | 39874 ft | 400 kts | 22° |
| 2026-05-06 00:04 | 48.19218 | -122.04397 | 40160 ft | 404 kts | 29° |
| 2026-05-06 00:05 | 48.22858 | -121.99901 | 40631 ft | 410 kts | 38° |
| 2026-05-06 00:05 | 48.25667 | -121.96061 | 41103 ft | 407 kts | 37° |
| 2026-05-06 00:05 | 48.27765 | -121.93206 | 41359 ft | 407 kts | 37° |
| 2026-05-06 00:06 | 48.29857 | -121.90343 | 41594 ft | 408 kts | 38° |
| 2026-05-06 00:06 | 48.31927 | -121.87500 | 41811 ft | 408 kts | 38° |
| 2026-05-06 00:06 | 48.34023 | -121.84623 | 42087 ft | 407 kts | 38° |
| 2026-05-06 00:06 | 48.36117 | -121.81750 | 42228 ft | 408 kts | 38° |
| 2026-05-06 00:07 | 48.38218 | -121.78863 | 42470 ft | 408 kts | 38° |
| 2026-05-06 00:07 | 48.40318 | -121.75970 | 42671 ft | 409 kts | 38° |
| 2026-05-06 00:07 | 48.42393 | -121.73109 | 42892 ft | 409 kts | 38° |
| 2026-05-06 00:07 | 48.43810 | -121.71154 | 43098 ft | 408 kts | 38° |
| 2026-05-06 00:08 | 48.46567 | -121.67345 | 43493 ft | 406 kts | 38° |
| 2026-05-06 00:08 | 48.48659 | -121.64453 | 43692 ft | 407 kts | 38° |
| 2026-05-06 00:08 | 48.50744 | -121.61567 | 43870 ft | 407 kts | 38° |
| 2026-05-06 00:09 | 48.54222 | -121.56742 | 44099 ft | 409 kts | 38° |
| 2026-05-06 00:09 | 48.56314 | -121.53835 | 44277 ft | 409 kts | 38° |
| 2026-05-06 00:09 | 48.58409 | -121.50922 | 44417 ft | 409 kts | 38° |
| 2026-05-06 00:09 | 48.60500 | -121.48011 | 44607 ft | 409 kts | 38° |
| 2026-05-06 00:10 | 48.62595 | -121.45090 | 44740 ft | 410 kts | 38° |
| 2026-05-06 00:10 | 48.64688 | -121.42166 | 44923 ft | 410 kts | 38° |
| 2026-05-06 00:10 | 48.66782 | -121.39244 | 44972 ft | 411 kts | 38° |
| 2026-05-06 00:11 | 48.71020 | -121.33313 | 44971 ft | 418 kts | 38° |
| 2026-05-06 00:11 | 48.75304 | -121.27300 | 44965 ft | 421 kts | 38° |
| 2026-05-06 00:12 | 48.79627 | -121.21219 | 44973 ft | 426 kts | 38° |
| 2026-05-06 00:12 | 48.84009 | -121.15040 | 44954 ft | 431 kts | 38° |
| 2026-05-06 00:13 | 48.88419 | -121.08805 | 44948 ft | 434 kts | 38° |
| 2026-05-06 00:13 | 48.92836 | -121.02545 | 44943 ft | 439 kts | 38° |
| 2026-05-06 00:14 | 48.97328 | -120.96163 | 44932 ft | 444 kts | 39° |
| 2026-05-06 00:14 | 49.01866 | -120.89696 | 44935 ft | 448 kts | 39° |
| 2026-05-06 00:15 | 49.06399 | -120.83220 | 44935 ft | 445 kts | 39° |
| 2026-05-06 00:15 | 49.10899 | -120.76777 | 44933 ft | 442 kts | 39° |
| 2026-05-06 00:16 | 49.15365 | -120.70365 | 44921 ft | 440 kts | 39° |
| 2026-05-06 00:16 | 49.19803 | -120.63975 | 44956 ft | 441 kts | 39° |
| 2026-05-06 00:17 | 49.24269 | -120.57530 | 44927 ft | 440 kts | 39° |
| 2026-05-06 00:17 | 49.28717 | -120.51091 | 44921 ft | 438 kts | 39° |
| 2026-05-06 00:18 | 49.33148 | -120.44664 | 44919 ft | 437 kts | 39° |
| 2026-05-06 00:18 | 49.37553 | -120.38340 | 44911 ft | 434 kts | 35° |
| 2026-05-06 00:19 | 49.42526 | -120.33213 | 44926 ft | 430 kts | 27° |
| 2026-05-06 00:19 | 49.47594 | -120.28349 | 44915 ft | 426 kts | 28° |
| 2026-05-06 00:20 | 49.52613 | -120.23535 | 44907 ft | 423 kts | 27° |
| 2026-05-06 00:20 | 49.57579 | -120.18760 | 44906 ft | 425 kts | 28° |
| 2026-05-06 00:21 | 49.62612 | -120.13905 | 44905 ft | 427 kts | 28° |
| 2026-05-06 00:21 | 49.67672 | -120.09014 | 44912 ft | 429 kts | 28° |
| 2026-05-06 00:22 | 49.72714 | -120.04125 | 44905 ft | 426 kts | 28° |
| 2026-05-06 00:22 | 49.77721 | -119.99261 | 44897 ft | 423 kts | 27° |
| 2026-05-06 00:23 | 49.82663 | -119.94448 | 44903 ft | 423 kts | 28° |
| 2026-05-06 00:23 | 49.87661 | -119.89570 | 44909 ft | 426 kts | 28° |
| 2026-05-06 00:24 | 49.92690 | -119.84646 | 44912 ft | 428 kts | 28° |
| 2026-05-06 00:24 | 49.97719 | -119.79712 | 44905 ft | 426 kts | 28° |
| 2026-05-06 00:25 | 50.02718 | -119.74793 | 44900 ft | 424 kts | 28° |
| 2026-05-06 00:25 | 50.07658 | -119.69921 | 44900 ft | 422 kts | 28° |
| 2026-05-06 00:26 | 50.12630 | -119.65008 | 44932 ft | 424 kts | 28° |
| 2026-05-06 00:26 | 50.17632 | -119.60050 | 44914 ft | 427 kts | 28° |
| 2026-05-06 00:27 | 50.22679 | -119.55035 | 44918 ft | 429 kts | 28° |
| 2026-05-06 00:27 | 50.27689 | -119.50044 | 44910 ft | 428 kts | 28° |
| 2026-05-06 00:28 | 50.32710 | -119.45031 | 44904 ft | 425 kts | 28° |
| 2026-05-06 00:28 | 50.37671 | -119.40063 | 44933 ft | 423 kts | 28° |
| 2026-05-06 00:29 | 50.42603 | -119.35115 | 44918 ft | 421 kts | 28° |
| 2026-05-06 00:29 | 50.47557 | -119.30128 | 44911 ft | 423 kts | 28° |
| 2026-05-06 00:30 | 50.52532 | -119.25112 | 44917 ft | 425 kts | 28° |
| 2026-05-06 00:30 | 50.57498 | -119.20087 | 44921 ft | 428 kts | 28° |
| 2026-05-06 00:31 | 50.62536 | -119.14981 | 44944 ft | 429 kts | 28° |
| 2026-05-06 00:31 | 50.67516 | -119.09914 | 44920 ft | 426 kts | 28° |
| 2026-05-06 00:32 | 50.72491 | -119.04847 | 44913 ft | 424 kts | 28° |
| 2026-05-06 00:32 | 50.77431 | -118.99798 | 44913 ft | 421 kts | 28° |
| 2026-05-06 00:33 | 50.82358 | -118.94752 | 44920 ft | 422 kts | 28° |
| 2026-05-06 00:33 | 50.87269 | -118.89709 | 44923 ft | 424 kts | 28° |
| 2026-05-06 00:34 | 50.92244 | -118.84587 | 44931 ft | 426 kts | 29° |
| 2026-05-06 00:34 | 50.97208 | -118.79461 | 44927 ft | 424 kts | 28° |
| 2026-05-06 00:35 | 51.02155 | -118.74342 | 44934 ft | 424 kts | 29° |
| 2026-05-06 00:35 | 51.07053 | -118.69260 | 44935 ft | 423 kts | 29° |
| 2026-05-06 00:36 | 51.11990 | -118.64123 | 44958 ft | 422 kts | 29° |
| 2026-05-06 00:36 | 51.16913 | -118.58991 | 44949 ft | 427 kts | 29° |
| 2026-05-06 00:37 | 51.21909 | -118.53767 | 44951 ft | 431 kts | 29° |
| 2026-05-06 00:37 | 51.26934 | -118.48497 | 44960 ft | 433 kts | 29° |
| 2026-05-06 00:38 | 51.31982 | -118.43189 | 44976 ft | 432 kts | 29° |
| 2026-05-06 00:38 | 51.36942 | -118.37959 | 44999 ft | 428 kts | 29° |
| 2026-05-06 00:39 | 51.41905 | -118.32717 | 44984 ft | 426 kts | 29° |
| 2026-05-06 00:39 | 51.46837 | -118.27488 | 44986 ft | 425 kts | 29° |
| 2026-05-06 00:40 | 51.51758 | -118.22263 | 45019 ft | 427 kts | 30° |
| 2026-05-06 00:40 | 51.56745 | -118.16945 | 44992 ft | 430 kts | 29° |
| 2026-05-06 00:41 | 51.61731 | -118.11622 | 45051 ft | 430 kts | 29° |
| 2026-05-06 00:41 | 51.66723 | -118.06275 | 45011 ft | 429 kts | 30° |
| 2026-05-06 00:42 | 51.71667 | -118.00965 | 45030 ft | 428 kts | 30° |
| 2026-05-06 00:42 | 51.76622 | -117.95632 | 45023 ft | 426 kts | 30° |
| 2026-05-06 00:43 | 51.81541 | -117.90320 | 45020 ft | 422 kts | 30° |
| 2026-05-06 00:43 | 51.86436 | -117.85021 | 45052 ft | 424 kts | 30° |
| 2026-05-06 00:44 | 51.91348 | -117.79692 | 45036 ft | 429 kts | 30° |
| 2026-05-06 00:44 | 51.96322 | -117.74277 | 45069 ft | 433 kts | 30° |
| 2026-05-06 00:45 | 52.01345 | -117.68788 | 45056 ft | 433 kts | 31° |
| 2026-05-06 00:45 | 52.05804 | -117.62218 | 45073 ft | 440 kts | 45° |
| 2026-05-06 00:46 | 52.09422 | -117.54160 | 45093 ft | 439 kts | 49° |
| 2026-05-06 00:46 | 52.12961 | -117.46089 | 45084 ft | 439 kts | 49° |
| 2026-05-06 00:47 | 52.16493 | -117.37934 | 45110 ft | 443 kts | 49° |
| 2026-05-06 00:47 | 52.20063 | -117.29699 | 45116 ft | 446 kts | 49° |
| 2026-05-06 00:48 | 52.23641 | -117.21401 | 45108 ft | 445 kts | 50° |
| 2026-05-06 00:48 | 52.27182 | -117.13173 | 45107 ft | 444 kts | 49° |
| 2026-05-06 00:49 | 52.30705 | -117.04956 | 45106 ft | 441 kts | 49° |
| 2026-05-06 00:49 | 52.34232 | -116.96707 | 45107 ft | 443 kts | 49° |
| 2026-05-06 00:50 | 52.37753 | -116.88444 | 45104 ft | 445 kts | 49° |
| 2026-05-06 00:50 | 52.41291 | -116.80113 | 45107 ft | 446 kts | 49° |
| 2026-05-06 00:51 | 52.44850 | -116.71706 | 45094 ft | 448 kts | 49° |
| 2026-05-06 00:51 | 52.48389 | -116.63319 | 45088 ft | 450 kts | 50° |
| 2026-05-06 00:52 | 52.51959 | -116.54825 | 44894 ft | 454 kts | 50° |
| 2026-05-06 00:52 | 52.53771 | -116.50514 | 44257 ft | 456 kts | 50° |
| 2026-05-06 00:52 | 52.55538 | -116.46287 | 43663 ft | 452 kts | 50° |
| 2026-05-06 00:52 | 52.57302 | -116.42053 | 43072 ft | 443 kts | 49° |
| 2026-05-06 00:53 | 52.59035 | -116.37899 | 42530 ft | 434 kts | 49° |
| 2026-05-06 00:53 | 52.60728 | -116.33842 | 41927 ft | 425 kts | 48° |
| 2026-05-06 00:53 | 52.62380 | -116.29874 | 41376 ft | 417 kts | 47° |
| 2026-05-06 00:53 | 52.63985 | -116.26007 | 40838 ft | 410 kts | 47° |
| 2026-05-06 00:54 | 52.65594 | -116.22133 | 40303 ft | 407 kts | 47° |
| 2026-05-06 00:54 | 52.67196 | -116.18270 | 39767 ft | 406 kts | 46° |
| 2026-05-06 00:54 | 52.68778 | -116.14451 | 39240 ft | 408 kts | 46° |
| 2026-05-06 00:54 | 52.70390 | -116.10550 | 38681 ft | 412 kts | 46° |
| 2026-05-06 00:55 | 52.71460 | -116.07954 | 38284 ft | 413 kts | 46° |
| 2026-05-06 00:55 | 52.73078 | -116.04019 | 37734 ft | 413 kts | 46° |
| 2026-05-06 00:55 | 52.74684 | -116.00111 | 37191 ft | 414 kts | 46° |
| 2026-05-06 00:55 | 52.76294 | -115.96198 | 36659 ft | 417 kts | 46° |
| 2026-05-06 00:56 | 52.77921 | -115.92230 | 36103 ft | 418 kts | 46° |
| 2026-05-06 00:56 | 52.80082 | -115.86942 | 35373 ft | 419 kts | 46° |
| 2026-05-06 00:56 | 52.81172 | -115.84273 | 35001 ft | 420 kts | 46° |
| 2026-05-06 00:56 | 52.82813 | -115.80255 | 34444 ft | 421 kts | 46° |
| 2026-05-06 00:57 | 52.84456 | -115.76223 | 33861 ft | 422 kts | 46° |
| 2026-05-06 00:57 | 52.86100 | -115.72178 | 33295 ft | 422 kts | 46° |
| 2026-05-06 00:57 | 52.87721 | -115.68187 | 32742 ft | 423 kts | 46° |
| 2026-05-06 00:57 | 52.89376 | -115.64113 | 32191 ft | 427 kts | 46° |
| 2026-05-06 00:58 | 52.91048 | -115.59986 | 31619 ft | 432 kts | 47° |
| 2026-05-06 00:58 | 52.92724 | -115.55835 | 31047 ft | 435 kts | 47° |
| 2026-05-06 00:58 | 52.94411 | -115.51646 | 30476 ft | 437 kts | 47° |
| 2026-05-06 00:58 | 52.96085 | -115.47490 | 29869 ft | 437 kts | 47° |
| 2026-05-06 00:59 | 52.97768 | -115.43299 | 29294 ft | 431 kts | 48° |
| 2026-05-06 00:59 | 52.99409 | -115.39202 | 28726 ft | 425 kts | 48° |
| 2026-05-06 00:59 | 53.01052 | -115.35108 | 28175 ft | 420 kts | 48° |
| 2026-05-06 00:59 | 53.02655 | -115.31112 | 27624 ft | 418 kts | 48° |
| 2026-05-06 01:00 | 53.04274 | -115.27064 | 27075 ft | 417 kts | 49° |
| 2026-05-06 01:00 | 53.05854 | -115.23100 | 26534 ft | 415 kts | 49° |
| 2026-05-06 01:00 | 53.07454 | -115.19080 | 26032 ft | 413 kts | 49° |
| 2026-05-06 01:00 | 53.09034 | -115.15104 | 25446 ft | 409 kts | 49° |
| 2026-05-06 01:01 | 53.10595 | -115.11172 | 24910 ft | 405 kts | 49° |
| 2026-05-06 01:01 | 53.12142 | -115.07272 | 24378 ft | 402 kts | 49° |
| 2026-05-06 01:01 | 53.13662 | -115.03433 | 23873 ft | 400 kts | 50° |
| 2026-05-06 01:01 | 53.15198 | -114.99548 | 23299 ft | 397 kts | 50° |
| 2026-05-06 01:02 | 53.16711 | -114.95710 | 22774 ft | 394 kts | 50° |
| 2026-05-06 01:02 | 53.18212 | -114.91901 | 22256 ft | 391 kts | 50° |
| 2026-05-06 01:02 | 53.19684 | -114.88163 | 21746 ft | 390 kts | 50° |
| 2026-05-06 01:02 | 53.21170 | -114.84381 | 21251 ft | 388 kts | 50° |
| 2026-05-06 01:03 | 53.22648 | -114.80613 | 20738 ft | 387 kts | 50° |
| 2026-05-06 01:03 | 53.24115 | -114.76865 | 20236 ft | 384 kts | 50° |
| 2026-05-06 01:03 | 53.25503 | -114.73060 | 19713 ft | 383 kts | 56° |
| 2026-05-06 01:03 | 53.26548 | -114.69012 | 19236 ft | 385 kts | 64° |
| 2026-05-06 01:04 | 53.27258 | -114.64677 | 18764 ft | 388 kts | 71° |
| 2026-05-06 01:04 | 53.27589 | -114.59040 | 18150 ft | 394 kts | 81° |
| 2026-05-06 01:04 | 53.27700 | -114.54476 | 17544 ft | 394 kts | 81° |
| 2026-05-06 01:04 | 53.27815 | -114.49921 | 17050 ft | 389 kts | 81° |
| 2026-05-06 01:05 | 53.27916 | -114.45474 | 16594 ft | 385 kts | 81° |
| 2026-05-06 01:05 | 53.28013 | -114.41035 | 16131 ft | 381 kts | 81° |
| 2026-05-06 01:05 | 53.28114 | -114.36621 | 15673 ft | 378 kts | 81° |
| 2026-05-06 01:05 | 53.28213 | -114.32234 | 15217 ft | 376 kts | 82° |
| 2026-05-06 01:06 | 53.28308 | -114.27859 | 14772 ft | 375 kts | 82° |
| 2026-05-06 01:06 | 53.28400 | -114.23507 | 14332 ft | 372 kts | 82° |
| 2026-05-06 01:06 | 53.28487 | -114.19264 | 13863 ft | 367 kts | 82° |
| 2026-05-06 01:06 | 53.28575 | -114.15023 | 13401 ft | 361 kts | 82° |
| 2026-05-06 01:07 | 53.28662 | -114.10827 | 12961 ft | 359 kts | 82° |
| 2026-05-06 01:07 | 53.28744 | -114.06688 | 12530 ft | 350 kts | 83° |
| 2026-05-06 01:07 | 53.28821 | -114.02734 | 12122 ft | 329 kts | 82° |
| 2026-05-06 01:07 | 53.28972 | -113.99039 | 11740 ft | 310 kts | 81° |
| 2026-05-06 01:08 | 53.29109 | -113.95529 | 11381 ft | 296 kts | 81° |
| 2026-05-06 01:08 | 53.29233 | -113.92192 | 11035 ft | 287 kts | 81° |
| 2026-05-06 01:08 | 53.29360 | -113.88865 | 10694 ft | 286 kts | 82° |
| 2026-05-06 01:08 | 53.29490 | -113.85528 | 10348 ft | 289 kts | 82° |
| 2026-05-06 01:09 | 53.29548 | -113.83288 | 10115 ft | 292 kts | 86° |
| 2026-05-06 01:09 | 53.29244 | -113.79891 | 9731 ft | 296 kts | 102° |
| 2026-05-06 01:09 | 53.28466 | -113.76717 | 9359 ft | 295 kts | 116° |
| 2026-05-06 01:09 | 53.26810 | -113.73175 | 8896 ft | 290 kts | 134° |
| 2026-05-06 01:10 | 53.25849 | -113.71593 | 8663 ft | 282 kts | 134° |
| 2026-05-06 01:10 | 53.24488 | -113.69323 | 8327 ft | 272 kts | 133° |
| 2026-05-06 01:10 | 53.23177 | -113.67120 | 7999 ft | 263 kts | 133° |
| 2026-05-06 01:10 | 53.21918 | -113.65008 | 7681 ft | 256 kts | 134° |
| 2026-05-06 01:11 | 53.20670 | -113.62927 | 7386 ft | 250 kts | 133° |
| 2026-05-06 01:11 | 53.19450 | -113.60889 | 7091 ft | 246 kts | 133° |
| 2026-05-06 01:11 | 53.18270 | -113.58920 | 6860 ft | 235 kts | 134° |
| 2026-05-06 01:11 | 53.17150 | -113.57056 | 6680 ft | 220 kts | 133° |
| 2026-05-06 01:12 | 53.16100 | -113.55306 | 6515 ft | 207 kts | 133° |
| 2026-05-06 01:12 | 53.15107 | -113.53652 | 6367 ft | 197 kts | 133° |
| 2026-05-06 01:12 | 53.14151 | -113.52061 | 6240 ft | 192 kts | 133° |
| 2026-05-06 01:12 | 53.13216 | -113.50506 | 6115 ft | 193 kts | 133° |
| 2026-05-06 01:13 | 53.12342 | -113.48782 | 5966 ft | 195 kts | 116° |
| 2026-05-06 01:13 | 53.11929 | -113.46674 | 5829 ft | 193 kts | 96° |
| 2026-05-06 01:13 | 53.11993 | -113.44463 | 5679 ft | 190 kts | 75° |
| 2026-05-06 01:13 | 53.12514 | -113.42486 | 5590 ft | 185 kts | 55° |
| 2026-05-06 01:14 | 53.14304 | -113.39459 | 5299 ft | 184 kts | 45° |
| 2026-05-06 01:14 | 53.15337 | -113.38239 | 5097 ft | 187 kts | 16° |
| 2026-05-06 01:14 | 53.16610 | -113.37988 | 5090 ft | 183 kts | 358° |
| 2026-05-06 01:15 | 53.17793 | -113.38593 | 5109 ft | 179 kts | 333° |
| 2026-05-06 01:15 | 53.18753 | -113.39870 | 5171 ft | 158 kts | 320° |
| 2026-05-06 01:15 | 53.19529 | -113.41095 | 5071 ft | 153 kts | 319° |
| 2026-05-06 01:15 | 53.20287 | -113.42320 | 4894 ft | 153 kts | 318° |
| 2026-05-06 01:16 | 53.21029 | -113.43564 | 4698 ft | 150 kts | 317° |
| 2026-05-06 01:16 | 53.21765 | -113.44796 | 4403 ft | 150 kts | 317° |
| 2026-05-06 01:16 | 53.22503 | -113.46025 | 4192 ft | 150 kts | 318° |
| 2026-05-06 01:16 | 53.23226 | -113.47219 | 3980 ft | 142 kts | 318° |
| 2026-05-06 01:17 | 53.23899 | -113.48347 | 3788 ft | 129 kts | 318° |
| 2026-05-06 01:17 | 53.24524 | -113.49393 | 3610 ft | 125 kts | 318° |
| 2026-05-06 01:17 | 53.25132 | -113.50402 | 3452 ft | 122 kts | 319° |
| 2026-05-06 01:17 | 53.25735 | -113.51405 | 3265 ft | 121 kts | 317° |
| 2026-05-06 01:18 | 53.26338 | -113.52412 | 3074 ft | 123 kts | 316° |
| 2026-05-06 01:18 | 53.26938 | -113.53415 | 2888 ft | 124 kts | 317° |
| 2026-05-06 01:18 | 53.27557 | -113.54449 | 2721 ft | 127 kts | 316° |
| 2026-05-06 01:18 | 53.28169 | -113.55498 | 2543 ft | 126 kts | 316° |
| 2026-05-06 01:19 | 53.28799 | -113.56538 | 2365 ft | 126 kts | 316° |
| 2026-05-06 01:19 | 53.29346 | -113.57439 | 2346 ft | 89 kts | 316° |
| 2026-05-06 01:19 | 53.29682 | -113.57991 | 2349 ft | 57 kts | 315° |
| 2026-05-06 01:19 | 53.29852 | -113.58204 | 2351 ft | 18 kts | 354° |
| 2026-05-06 01:20 | 53.29948 | -113.58203 | 2350 ft | 14 kts | 358° |
| 2026-05-06 01:20 | 53.29978 | -113.58204 | 2350 ft | 0 kts | 359° |
| 2026-05-06 01:21 | 53.29979 | -113.58204 | 2350 ft | 2 kts | 359° |
| 2026-05-06 01:21 | 53.30016 | -113.58202 | 2350 ft | 8 kts | 2° |
| 2026-05-06 01:21 | 53.30083 | -113.58209 | 2350 ft | 12 kts | 347° |
| 2026-05-06 01:22 | 53.30156 | -113.58305 | 2350 ft | 15 kts | 316° |
| 2026-05-06 01:22 | 53.30222 | -113.58409 | 2350 ft | 9 kts | 330° |
| 2026-05-06 01:22 | 53.30281 | -113.58359 | 2350 ft | 12 kts | 44° |
| 2026-05-06 01:22 | 53.30342 | -113.58272 | 2350 ft | 9 kts | 9° |
| 2026-05-06 01:23 | 53.30401 | -113.58348 | 2350 ft | 13 kts | 315° |
| 2026-05-06 01:23 | 53.30430 | -113.58410 | 2350 ft | 5 kts | 274° |
| 2026-05-06 01:23 | 53.30416 | -113.58465 | 2350 ft | 3 kts | 230° |
| 2026-05-06 01:23 | 53.30410 | -113.58476 | 2350 ft | 1 kts | 226° |
| 2026-05-06 01:24 | 53.30408 | -113.58478 | 2350 ft | 0 kts | 225° |